5FL5 weather

Palm Beach County Judicial Center Heliport
West Palm Beach, Florida, United States

Public forecast

Using degrees Fahrenheit for public forecast. Weather courtesy of forecast.io.

METAR (pilot weather report)

Closest report is Palm Beach International Airport, 2.9 nm (5.4 km) SW. Retrieved 2019/06/16 20:53 UTC (1 hour ago):

KPBI 162053Z 21004KT 10SM FEW020 SCT075 BKN110 25/22 A3006 RMK AO2 RAE29 SLP178 CB DSNT N P0000 60021 T02500217 58005

TAF (pilot weather forecast)

Closest forecast is Palm Beach International Airport, 2.9 nm (5.4 km) SW. Retrieved 2019/06/16 18:42 UTC (3 hours ago):

TAF KPBI 161734Z 1618/1718 16009KT P6SM VCSH SCT035 BKN120 OVC200 FM162000 17006KT P6SM SHRA VCTS SCT020CB BKN035 BKN050 FM170100 VRB06KT P6SM SCT025 BKN070 BKN200 FM170900 15008KT P6SM VCSH SCT020 BKN040 BKN080